Time;durP1;ratioP1;P1;durP2;ratioP2;P2;SDS_P1;SDS_P2;PMS_P1;PMS_P2;Temp;Humidity;BMP_temperature;BMP_pressure;BME280_temperature;BME280_humidity;BME280_pressure;Samples;Min_cycle;Max_cycle;Signal;HPM_P1;HPM_P2
2023/04/20 00:13:43;;;;;;;12.10;9.85;;;;;;;;;;4968757;28;20206;-88
2023/04/20 00:25:11;;;;;;;14.82;10.88;;;;;;;;;;5036427;28;20189;-88
2023/04/20 00:27:45;;;;;;;11.10;9.70;;;;;;;;;;5039973;28;20209;-89
2023/04/20 00:30:13;;;;;;;11.15;9.98;;;;;;;;;;5040096;28;20170;-89
2023/04/20 00:32:46;;;;;;;11.23;9.70;;;;;;;;;;5041629;22;20275;-86
2023/04/20 00:35:16;;;;;;;10.38;9.20;;;;;;;;;;5026788;28;20650;-86
2023/04/20 00:37:51;;;;;;;10.98;9.38;;;6.70;1.00;;;;;;5027053;28;20576;-87
2023/04/20 00:40:22;;;;;;;12.85;10.02;;;;;;;;;;5032367;28;20212;-86
2023/04/20 00:42:57;;;;;;;12.48;9.98;;;;;;;;;;5033634;28;20229;-87
2023/04/20 00:45:25;;;;;;;11.88;9.13;;;;;;;;;;5023176;28;20208;-88
2023/04/20 00:47:56;;;;;;;10.88;9.63;;;;;;;;;;5022449;28;20201;-87
2023/04/20 00:50:27;;;;;;;12.07;9.10;;;;;;;;;;5023633;28;20228;-87
2023/04/20 00:52:56;;;;;;;11.10;9.85;;;;;;;;;;5024895;28;20377;-87
2023/04/20 00:55:26;;;;;;;13.95;10.70;;;;;;;;;;5028908;28;20205;-87
2023/04/20 00:57:57;;;;;;;11.70;9.90;;;;;;;;;;5030916;28;20237;-86
2023/04/20 01:00:27;;;;;;;13.50;10.15;;;;;;;;;;5039173;28;20193;-86
2023/04/20 01:02:59;;;;;;;11.40;9.93;;;6.60;1.00;;;;;;5034103;28;20221;-86
2023/04/20 01:05:35;;;;;;;14.25;10.07;;;6.60;1.00;;;;;;5035683;28;20205;-86
2023/04/20 01:08:03;;;;;;;11.73;10.00;;;;;;;;;;5032586;28;20243;-86
2023/04/20 01:10:34;;;;;;;12.57;10.15;;;;;;;;;;5034788;28;20261;-87
2023/04/20 01:13:34;;;;;;;12.30;9.35;;;6.50;1.00;;;;;;5036553;28;20221;-87
2023/04/20 01:16:04;;;;;;;11.73;10.15;;;;;;;;;;5027701;28;20235;-87
2023/04/20 01:18:42;;;;;;;12.75;9.13;;;6.40;1.00;;;;;;5035457;28;20217;-85
2023/04/20 01:21:10;;;;;;;11.45;8.90;;;;;;;;;;5027348;28;20212;-88
2023/04/20 01:23:38;;;;;;;11.65;8.90;;;6.40;1.00;;;;;;5031043;28;20256;-87
2023/04/20 01:26:43;;;;;;;12.77;9.15;;;6.40;1.00;;;;;;5030993;28;20220;-86
2023/04/20 01:35:17;;;;;;;11.57;10.20;;;;;;;;;;5034390;28;20216;-85
2023/04/20 01:53:48;;;;;;;;;;;;;;;;;;;;;
2023/04/20 02:00:05;;;;;;;16.60;11.70;;;;;;;;;;4840962;29;20716;-88
2023/04/20 02:02:32;;;;;;;12.63;10.82;;;;;;;;;;4883624;29;20249;-86
2023/04/20 02:04:59;;;;;;;16.00;12.68;;;;;;;;;;4961464;28;20606;-86
2023/04/20 02:07:27;;;;;;;19.02;12.23;;;;;;;;;;5031111;28;20212;-86
2023/04/20 02:09:54;;;;;;;17.05;13.15;;;;;;;;;;5038567;28;20204;-84
2023/04/20 02:12:45;;;;;;;16.38;12.82;;;6.40;1.00;;;;;;5031898;28;20225;-85
2023/04/20 02:15:37;;;;;;;14.50;11.23;;;6.40;1.00;;;;;;5021419;28;20280;-86
2023/04/20 02:18:07;;;;;;;16.65;12.85;;;;;;;;;;5019142;28;20228;-86
2023/04/20 02:20:35;;;;;;;13.77;11.93;;;;;;;;;;5024621;28;20209;-87
2023/04/20 02:23:11;;;;;;;17.70;12.00;;;;;;;;;;5020645;28;20232;-86
2023/04/20 02:25:56;;;;;;;13.35;10.80;;;;;;;;;;5040098;28;20271;-85
2023/04/20 02:29:40;;;;;;;18.08;12.13;;;6.40;1.00;;;;;;5036138;28;20299;-86
2023/04/20 02:32:57;;;;;;;16.45;11.82;;;6.40;1.00;;;;;;4917422;28;20222;-86
2023/04/20 02:42:12;;;;;;;17.55;14.13;;;;;;;;;;5025729;28;20223;-87
2023/04/20 02:45:30;;;;;;;18.02;12.55;;;6.50;1.00;;;;;;5032030;28;20287;-87
2023/04/20 03:43:10;;;;;;;23.48;15.57;;;6.60;1.00;;;;;;4912579;28;21370;-85
2023/04/20 03:45:59;;;;;;;20.33;14.50;;;6.60;1.00;;;;;;4997340;28;20189;-85
2023/04/20 03:48:32;;;;;;;21.05;15.20;;;;;;;;;;5021097;28;20261;-86
2023/04/20 03:51:05;;;;;;;19.00;14.77;;;;;;;;;;5020880;28;20190;-86
2023/04/20 03:56:29;;;;;;;19.67;15.68;;;;;;;;;;5019299;28;20189;-86
2023/04/20 03:59:06;;;;;;;22.23;15.35;;;6.50;1.00;;;;;;5020722;28;20197;-86
2023/04/20 04:07:44;;;;;;;28.88;16.30;;;;;;;;;;5018707;28;20202;-86
2023/04/20 04:10:17;;;;;;;21.45;16.23;;;;;;;;;;5006154;28;20208;-87
2023/04/20 04:12:55;;;;;;;24.48;17.67;;;6.60;1.00;;;;;;5002616;28;20225;-87
2023/04/20 04:18:21;;;;;;;23.08;16.45;;;;;;;;;;4999377;28;20210;-88
2023/04/20 04:20:51;;;;;;;20.75;15.35;;;6.60;1.00;;;;;;5002121;28;20202;-88
2023/04/20 04:23:23;;;;;;;22.02;14.50;;;;;;;;;;5000984;28;20241;-87
2023/04/20 04:25:57;;;;;;;24.15;16.17;;;;;;;;;;5000026;28;20220;-87
2023/04/20 04:28:59;;;;;;;19.85;16.17;;;6.50;1.00;;;;;;4998946;28;20245;-87
2023/04/20 04:31:39;;;;;;;21.00;14.38;;;;;;;;;;4999629;28;20283;-88
2023/04/20 04:45:06;;;;;;;;;;;;;;;;;;;;;
2023/04/20 04:48:16;;;;;;;20.02;14.60;;;6.60;1.00;;;;;;4832768;29;20301;-86
2023/04/20 04:51:02;;;;;;;19.42;14.23;;;6.60;1.00;;;;;;4836150;29;20267;-87
2023/04/20 05:02:26;;;;;;;18.42;12.80;;;;;;;;;;4982136;28;20272;-86
2023/04/20 05:05:11;;;;;;;19.90;14.07;;;;;;;;;;4960924;29;20286;-86
2023/04/20 05:10:37;;;;;;;24.20;15.13;;;;;;;;;;4959487;29;20231;-85
2023/04/20 05:13:05;;;;;;;21.67;15.00;;;;;;;;;;4988933;28;20221;-85
2023/04/20 05:15:38;;;;;;;23.63;15.60;;;;;;;;;;5005166;28;20285;-85
2023/04/20 05:18:20;;;;;;;20.05;13.55;;;;;;;;;;5018806;28;20240;-85
2023/04/20 05:26:17;;;;;;;20.75;15.60;;;;;;;;;;5018671;28;20202;-85
2023/04/20 05:28:45;;;;;;;25.70;16.88;;;;;;;;;;5019170;28;20217;-85
2023/04/20 05:31:12;;;;;;;26.17;16.90;;;;;;;;;;5019237;28;20206;-85
2023/04/20 05:33:40;;;;;;;22.85;15.82;;;;;;;;;;5019089;28;20205;-85
2023/04/20 05:36:10;;;;;;;24.40;16.33;;;;;;;;;;5019039;28;20185;-84
2023/04/20 05:38:37;;;;;;;27.30;18.17;;;6.90;1.00;;;;;;5019240;28;20206;-84
2023/04/20 05:41:12;;;;;;;23.20;17.20;;;7.00;1.00;;;;;;5018871;28;20177;-88
2023/04/20 05:43:44;;;;;;;28.77;17.20;;;;;;;;;;5017181;28;20209;-86
2023/04/20 05:48:58;;;;;;;28.15;18.58;;;;;;;;;;5015379;28;20421;-86
2023/04/20 05:51:33;;;;;;;31.00;16.35;;;6.80;1.00;;;;;;5009375;28;20262;-86
2023/04/20 05:54:11;;;;;;;29.45;17.35;;;;;;;;;;5000192;28;20235;-86
2023/04/20 06:11:36;;;;;;;28.00;19.90;;;;;;;;;;5022886;28;20212;-87
2023/04/20 06:14:03;;;;;;;26.70;17.70;;;;;;;;;;5022266;28;20228;-87
2023/04/20 06:16:32;;;;;;;26.25;17.52;;;;;;;;;;5021305;28;20268;-87
2023/04/20 06:31:32;;;;;;;25.37;18.37;;;9.20;99.90;;;;;;5036205;28;20494;-86
2023/04/20 06:38:08;;;;;;;29.60;18.30;;;7.30;99.90;;;;;;4900171;29;20424;-86
2023/04/20 06:40:36;;;;;;;26.23;17.80;;;;;;;;;;4940940;28;20456;-86
2023/04/20 06:43:27;;;;;;;23.90;17.90;;;;;;;;;;5033943;28;20510;-87
2023/04/20 06:46:16;;;;;;;;;;;;;;;;;;;;;
2023/04/20 06:49:03;;;;;;;27.17;18.30;;;;;;;;;;5019253;28;20653;-87
2023/04/20 06:51:33;;;;;;;25.77;19.02;;;;;;;;;;5022079;28;20482;-86
2023/04/20 06:54:03;;;;;;;29.92;16.63;;;;;;;;;;5020929;28;20236;-87
2023/04/20 06:59:58;;;;;;;24.60;16.67;;;7.60;99.90;;;;;;5002741;28;20442;-86
2023/04/20 07:02:26;;;;;;;23.35;16.10;;;;;;;;;;5020802;28;20464;-87
2023/04/20 07:04:52;;;;;;;22.40;15.73;;;7.30;99.90;;;;;;5020017;28;20594;-86
2023/04/20 07:07:19;;;;;;;25.90;17.43;;;7.70;92.50;;;;;;5023293;28;20610;-88
2023/04/20 07:09:46;;;;;;;19.93;16.27;;;8.10;61.00;;;;;;5022875;28;20484;-87
2023/04/20 07:12:14;;;;;;;23.83;16.00;;;8.40;1.00;;;;;;5030748;28;20455;-87
2023/04/20 07:14:42;;;;;;;21.30;14.50;;;7.90;9.10;;;;;;5040049;28;20471;-87
2023/04/20 07:17:10;;;;;;;22.30;15.03;;;8.20;1.00;;;;;;5040435;28;20456;-87
2023/04/20 07:19:37;;;;;;;19.40;14.90;;;8.10;1.00;;;;;;5039437;28;20425;-87
2023/04/20 07:22:03;;;;;;;20.47;16.00;;;8.40;1.00;;;;;;5027852;28;20498;-86
2023/04/20 07:24:30;;;;;;;25.07;16.30;;;8.10;1.00;;;;;;5022918;28;20859;-88
2023/04/20 07:26:57;;;;;;;23.20;16.50;;;8.20;1.00;;;;;;5020801;28;20531;-87
2023/04/20 07:29:24;;;;;;;24.57;16.70;;;8.20;1.00;;;;;;5019076;28;20448;-87
2023/04/20 07:31:51;;;;;;;23.80;16.73;;;7.90;1.00;;;;;;5019437;28;20448;-87
2023/04/20 07:34:20;;;;;;;27.07;16.00;;;8.00;1.00;;;;;;5020106;28;20518;-87
2023/04/20 07:36:47;;;;;;;23.03;17.10;;;8.00;1.00;;;;;;5020648;28;20472;-87
2023/04/20 07:39:14;;;;;;;24.60;17.53;;;8.20;1.00;;;;;;5030285;28;20428;-85
2023/04/20 07:41:41;;;;;;;26.83;18.37;;;8.00;1.00;;;;;;5040841;28;20467;-84
2023/04/20 07:44:08;;;;;;;24.30;15.60;;;8.10;1.00;;;;;;5039911;28;20540;-86
2023/04/20 07:46:35;;;;;;;22.13;16.00;;;8.00;1.00;;;;;;5032785;28;20930;-87
2023/04/20 07:49:02;;;;;;;23.90;15.90;;;8.00;1.00;;;;;;5031785;28;20448;-86
2023/04/20 07:51:33;;;;;;;20.77;16.20;;;8.20;1.00;;;;;;5035496;28;20609;-87
2023/04/20 07:54:00;;;;;;;20.30;14.77;;;8.40;1.00;;;;;;5023403;28;20446;-88
2023/04/20 07:56:27;;;;;;;25.10;15.93;;;8.40;99.90;;;;;;5020286;28;20925;-87
2023/04/20 07:58:53;;;;;;;23.10;16.40;;;8.40;99.90;;;;;;5020544;28;20455;-87
2023/04/20 08:01:24;;;;;;;24.20;16.70;;;8.60;99.90;;;;;;5020075;28;20531;-87
2023/04/20 08:03:51;;;;;;;22.27;15.23;;;8.60;99.90;;;;;;5018634;28;20471;-87
2023/04/20 08:06:17;;;;;;;19.63;14.37;;;8.70;99.90;;;;;;5019689;28;20662;-87
2023/04/20 08:08:46;;;;;;;22.60;15.50;;;8.60;99.90;;;;;;5019062;28;20455;-87
2023/04/20 08:11:12;;;;;;;19.83;14.67;;;8.70;99.90;;;;;;5018324;28;20488;-87
2023/04/20 08:13:40;;;;;;;16.63;13.10;;;8.70;99.90;;;;;;5018474;28;20472;-87
2023/04/20 08:16:07;;;;;;;18.60;14.57;;;8.70;90.30;;;;;;5034239;28;20512;-87
2023/04/20 08:18:34;;;;;;;19.50;13.60;;;8.90;97.00;;;;;;5026918;28;20532;-87
2023/04/20 08:21:01;;;;;;;19.37;13.87;;;9.00;1.00;;;;;;5018985;28;20448;-87
2023/04/20 08:23:28;;;;;;;18.10;14.63;;;9.00;1.00;;;;;;5018182;28;20986;-87
2023/04/20 08:25:56;;;;;;;17.50;13.77;;;9.40;1.00;;;;;;5025054;28;20444;-87
2023/04/20 08:28:24;;;;;;;21.53;14.50;;;9.40;1.00;;;;;;5033111;28;20451;-87
2023/04/20 08:30:51;;;;;;;18.13;12.93;;;9.40;99.90;;;;;;5031795;28;20553;-87
2023/04/20 08:33:18;;;;;;;16.43;13.73;;;9.50;99.90;;;;;;5027073;28;20468;-87
2023/04/20 08:35:45;;;;;;;21.87;16.60;;;9.40;1.00;;;;;;5033366;28;20444;-87
2023/04/20 08:38:12;;;;;;;22.93;17.30;;;9.20;99.90;;;;;;5026861;28;20446;-87
2023/04/20 08:40:39;;;;;;;19.93;16.40;;;9.00;1.00;;;;;;5029301;28;20448;-88
2023/04/20 08:43:07;;;;;;;20.93;16.30;;;9.00;1.00;;;;;;5020265;28;20468;-87
2023/04/20 08:45:34;;;;;;;22.03;17.13;;;8.90;1.00;;;;;;5036759;28;20455;-87
2023/04/20 08:48:05;;;;;;;27.20;16.97;;;8.80;1.00;;;;;;5039401;28;20442;-86
2023/04/20 08:50:32;;;;;;;22.53;16.63;;;8.80;99.90;;;;;;5024220;28;20471;-87
2023/04/20 08:53:01;;;;;;;19.90;16.70;;;8.70;99.90;;;;;;5037397;28;20455;-86
2023/04/20 08:55:28;;;;;;;20.43;16.20;;;8.70;1.00;;;;;;5038401;28;20448;-87
2023/04/20 08:57:55;;;;;;;21.40;16.57;;;8.60;1.00;;;;;;5019360;28;20452;-87
2023/04/20 09:00:24;;;;;;;23.93;16.03;;;8.30;99.90;;;;;;5024180;28;20632;-87
2023/04/20 09:02:52;;;;;;;21.00;17.60;;;8.60;95.10;;;;;;5018402;28;20511;-87
2023/04/20 09:05:26;;;;;;;22.80;14.90;;;8.50;99.90;;;;;;5023034;28;20491;-87
2023/04/20 09:07:54;;;;;;;21.63;15.93;;;8.50;1.40;;;;;;5025749;28;20922;-87
2023/04/20 09:10:23;;;;;;;22.10;16.57;;;8.50;1.00;;;;;;5023342;28;20491;-88
2023/04/20 09:12:50;;;;;;;24.23;16.03;;;8.80;99.90;;;;;;5025703;28;20456;-87
2023/04/20 09:15:29;;;;;;;24.37;16.33;;;8.50;80.30;;;;;;5031273;28;20440;-88
2023/04/20 09:17:56;;;;;;;28.27;17.33;;;8.50;99.90;;;;;;5038657;28;20440;-86
2023/04/20 09:20:31;;;;;;;21.27;16.00;;;8.40;99.90;;;;;;5038894;28;20506;-85
2023/04/20 09:22:58;;;;;;;22.07;17.60;;;8.40;99.90;;;;;;5038534;28;20451;-87
2023/04/20 09:25:26;;;;;;;26.47;17.80;;;8.40;1.00;;;;;;5037908;28;20415;-86
2023/04/20 09:27:57;;;;;;;22.70;17.23;;;8.60;1.00;;;;;;5037821;28;20429;-86
2023/04/20 09:30:24;;;;;;;22.40;16.00;;;8.30;1.00;;;;;;5038484;28;20496;-86
2023/04/20 09:33:02;;;;;;;19.23;16.63;;;8.60;1.00;;;;;;5037929;28;20491;-85
2023/04/20 09:35:29;;;;;;;22.17;16.27;;;8.40;1.00;;;;;;5035918;28;20432;-87
2023/04/20 09:37:56;;;;;;;24.43;17.00;;;8.50;1.00;;;;;;5022458;28;20464;-88
2023/04/20 09:40:26;;;;;;;27.63;18.53;;;8.60;99.90;;;;;;5030446;28;20447;-85
2023/04/20 09:42:54;;;;;;;21.00;15.37;;;8.80;99.90;;;;;;5038274;28;20470;-86
2023/04/20 09:48:38;;;;;;;23.13;16.00;;;9.10;99.90;;;;;;4956937;29;20419;-86
2023/04/20 09:51:05;;;;;;;15.50;13.30;;;9.10;1.00;;;;;;5033704;28;20492;-85
2023/04/20 09:53:34;;;;;;;17.13;14.77;;;9.10;1.00;;;;;;5037990;28;20475;-86
2023/04/20 09:56:02;;;;;;;20.20;15.97;;;9.10;99.90;;;;;;5030020;28;20562;-87
2023/04/20 09:58:32;;;;;;;17.93;13.67;;;9.20;99.90;;;;;;5022342;28;20478;-87
2023/04/20 10:00:59;;;;;;;20.50;14.60;;;9.70;1.00;;;;;;5024812;28;20411;-85
2023/04/20 10:03:32;;;;;;;16.40;13.90;;;;;;;;;;5037764;28;20472;-89
2023/04/20 10:06:12;;;;;;;16.93;13.07;;;9.40;1.00;;;;;;5037827;28;20440;-88
2023/04/20 10:08:41;;;;;;;17.73;13.93;;;9.70;60.20;;;;;;5033372;28;20507;-86
2023/04/20 10:11:08;;;;;;;16.77;13.80;;;9.60;99.90;;;;;;5019720;28;21022;-88
2023/04/20 10:13:36;;;;;;;16.50;12.83;;;;;;;;;;5019783;28;20468;-88
2023/04/20 10:16:03;;;;;;;19.80;14.60;;;;;;;;;;5017367;28;20450;-87
2023/04/20 10:18:30;;;;;;;18.10;14.57;;;9.70;1.00;;;;;;5018110;28;20864;-87
2023/04/20 10:21:08;;;;;;;17.80;12.97;;;9.90;99.90;;;;;;5019224;28;20607;-87
2023/04/20 10:23:35;;;;;;;14.90;11.77;;;;;;;;;;5018934;28;20475;-87
2023/04/20 10:26:03;;;;;;;13.27;11.17;;;;;;;;;;5018159;28;20471;-87
2023/04/20 10:28:39;;;;;;;13.43;11.70;;;10.40;1.00;;;;;;5018417;28;20452;-87
2023/04/20 10:31:06;;;;;;;14.03;10.97;;;;;;;;;;5019145;28;20560;-87
2023/04/20 10:33:33;;;;;;;14.93;12.43;;;10.50;99.90;;;;;;5019055;28;20479;-88
2023/04/20 10:36:01;;;;;;;17.03;12.53;;;;;;;;;;5018502;28;20459;-87
2023/04/20 10:38:30;;;;;;;14.20;12.53;;;10.80;1.00;;;;;;5017650;28;20943;-87
2023/04/20 10:40:58;;;;;;;15.90;11.90;;;;;;;;;;5021683;28;20448;-87
2023/04/20 10:43:25;;;;;;;13.50;11.87;;;10.80;99.90;;;;;;5022803;28;20567;-86
2023/04/20 10:45:52;;;;;;;13.07;11.10;;;10.80;46.60;;;;;;5033108;28;20451;-87
2023/04/20 10:48:19;;;;;;;14.73;11.97;;;10.60;1.00;;;;;;5028689;28;20482;-86
2023/04/20 10:50:46;;;;;;;15.23;12.30;;;11.30;99.90;;;;;;5034204;28;20554;-86
2023/04/20 10:53:20;;;;;;;16.07;14.37;;;11.70;1.00;;;;;;5023101;28;20452;-86
2023/04/20 10:55:58;;;;;;;13.13;11.63;;;10.90;99.90;;;;;;5028134;28;20451;-87
2023/04/20 10:58:26;;;;;;;14.80;12.37;;;10.50;1.00;;;;;;5026973;28;20412;-87
2023/04/20 11:01:00;;;;;;;18.43;12.53;;;10.30;25.60;;;;;;5028044;28;21021;-87
2023/04/20 11:03:28;;;;;;;18.57;12.83;;;10.40;1.00;;;;;;5026059;28;20470;-86
2023/04/20 11:05:59;;;;;;;13.50;11.17;;;;;;;;;;5036799;28;20968;-87
2023/04/20 11:08:36;;;;;;;15.37;13.53;;;10.40;60.70;;;;;;5026131;28;20490;-87
2023/04/20 11:11:04;;;;;;;14.43;12.60;;;11.30;1.00;;;;;;5021636;28;20514;-87
2023/04/20 11:13:32;;;;;;;16.00;12.70;;;11.90;1.00;;;;;;5021843;28;20467;-88
2023/04/20 11:16:00;;;;;;;15.97;12.67;;;10.90;1.00;;;;;;5024264;28;20460;-87
2023/04/20 11:18:29;;;;;;;13.67;11.63;;;11.60;40.90;;;;;;5033291;28;20455;-86
2023/04/20 11:20:56;;;;;;;21.40;14.37;;;;;;;;;;5037361;28;20456;-86
2023/04/20 11:23:26;;;;;;;16.80;12.70;;;11.20;99.90;;;;;;5030952;28;20636;-87
2023/04/20 11:25:53;;;;;;;16.47;14.30;;;;;;;;;;5025188;28;20526;-89
2023/04/20 11:28:22;;;;;;;17.40;14.20;;;11.20;99.90;;;;;;5024393;28;20436;-85
2023/04/20 11:30:51;;;;;;;17.63;13.00;;;10.90;1.00;;;;;;5022790;28;20456;-85
2023/04/20 11:33:26;;;;;;;16.43;13.27;;;11.60;1.00;;;;;;5022461;28;20554;-85
2023/04/20 11:35:54;;;;;;;16.00;14.07;;;11.40;99.90;;;;;;5021584;28;20463;-85
2023/04/20 11:38:27;;;;;;;17.30;13.30;;;11.90;99.90;;;;;;5020723;28;20880;-85
2023/04/20 11:40:54;;;;;;;16.80;14.77;;;11.30;1.00;;;;;;5021224;28;20468;-86
2023/04/20 11:43:23;;;;;;;17.90;13.90;;;11.70;99.90;;;;;;5021270;28;20498;-86
2023/04/20 11:45:50;;;;;;;20.70;14.80;;;;;;;;;;5021035;28;20512;-86
2023/04/20 11:48:18;;;;;;;15.80;13.30;;;11.60;1.00;;;;;;5019206;28;20954;-86
2023/04/20 11:50:45;;;;;;;16.50;13.83;;;12.40;99.90;;;;;;5019657;28;20426;-85
2023/04/20 11:53:13;;;;;;;16.63;14.83;;;;;;;;;;5037527;28;20460;-85
2023/04/20 11:55:41;;;;;;;20.43;16.40;;;12.30;92.50;;;;;;5040154;28;20436;-85
2023/04/20 11:58:08;;;;;;;49.47;35.47;;;;;;;;;;5039740;28;20500;-85
2023/04/20 12:00:36;;;;;;;19.30;17.00;;;12.30;99.90;;;;;;5035248;28;20418;-85
2023/04/20 12:03:03;;;;;;;17.70;15.73;;;;;;;;;;5033795;28;20476;-85
2023/04/20 12:05:30;;;;;;;18.73;15.00;;;12.00;1.00;;;;;;5039966;28;20491;-84
2023/04/20 12:07:57;;;;;;;15.87;14.20;;;12.00;1.00;;;;;;5036462;28;20464;-84
2023/04/20 12:10:24;;;;;;;15.70;13.87;;;12.30;99.90;;;;;;5032887;28;20494;-84
2023/04/20 12:12:52;;;;;;;18.27;15.43;;;12.50;99.90;;;;;;5036125;28;20495;-85
2023/04/20 12:15:19;;;;;;;17.73;13.43;;;12.30;99.90;;;;;;5028908;28;20436;-86
2023/04/20 12:17:47;;;;;;;17.70;13.93;;;12.90;1.00;;;;;;5026596;28;20448;-85
2023/04/20 12:20:14;;;;;;;20.87;15.67;;;12.30;99.90;;;;;;5022080;28;20448;-86
2023/04/20 12:22:41;;;;;;;16.57;13.77;;;13.00;99.90;;;;;;5019661;28;20460;-85
2023/04/20 12:25:08;;;;;;;17.07;13.63;;;13.00;1.00;;;;;;5019701;28;20444;-85
2023/04/20 12:27:35;;;;;;;16.40;12.67;;;13.30;1.00;;;;;;5019336;28;20438;-85
2023/04/20 12:30:02;;;;;;;20.00;15.37;;;13.40;99.90;;;;;;5034127;28;20448;-86
2023/04/20 12:32:29;;;;;;;16.23;14.53;;;13.20;99.90;;;;;;5036926;28;20507;-85
2023/04/20 12:34:58;;;;;;;20.73;16.63;;;13.30;1.00;;;;;;5030060;28;20444;-85
2023/04/20 12:37:25;;;;;;;17.00;14.60;;;13.20;1.00;;;;;;5022529;28;20818;-85
2023/04/20 12:39:51;;;;;;;19.00;15.00;;;13.60;99.90;;;;;;5021509;28;20427;-86
2023/04/20 12:42:19;;;;;;;18.37;15.83;;;;;;;;;;5021883;28;20959;-86
2023/04/20 12:44:45;;;;;;;21.50;14.90;;;12.80;1.00;;;;;;5020802;28;20448;-86
2023/04/20 12:47:13;;;;;;;20.10;16.07;;;;;;;;;;5020942;28;20430;-86
2023/04/20 12:49:40;;;;;;;21.10;17.63;;;12.60;99.90;;;;;;5020543;28;20826;-86
2023/04/20 12:52:08;;;;;;;25.63;20.30;;;12.80;1.00;;;;;;5019668;28;20491;-87
2023/04/20 12:54:36;;;;;;;19.03;16.77;;;13.40;99.90;;;;;;5019589;28;20499;-87
2023/04/20 12:57:03;;;;;;;19.03;15.33;;;13.30;99.90;;;;;;5020330;28;20867;-86
2023/04/20 12:59:30;;;;;;;16.30;14.57;;;13.50;99.90;;;;;;5019479;28;20453;-87
2023/04/20 13:01:57;;;;;;;18.43;14.90;;;;;;;;;;5021874;28;20535;-86
2023/04/20 13:04:25;;;;;;;16.70;14.93;;;;;;;;;;5025141;28;20498;-86
2023/04/20 13:06:52;;;;;;;18.10;15.10;;;13.10;99.90;;;;;;5034044;28;20441;-86
2023/04/20 13:09:20;;;;;;;18.33;15.67;;;13.80;12.90;;;;;;5037619;28;20448;-85
2023/04/20 13:11:47;;;;;;;17.90;14.50;;;13.30;99.90;;;;;;5038302;28;20484;-85
2023/04/20 13:14:13;;;;;;;17.13;14.00;;;13.90;99.90;;;;;;5037765;28;20460;-85
2023/04/20 13:16:40;;;;;;;17.50;14.53;;;13.40;99.90;;;;;;5038976;28;20420;-85
2023/04/20 13:19:07;;;;;;;20.90;14.60;;;;;;;;;;5038768;28;20443;-85
2023/04/20 13:21:35;;;;;;;18.17;15.20;;;;;;;;;;5038642;28;20443;-85
2023/04/20 13:24:01;;;;;;;19.20;15.03;;;14.30;99.90;;;;;;5033619;28;20495;-85
2023/04/20 13:26:30;;;;;;;23.43;15.97;;;13.90;99.90;;;;;;5021855;28;20443;-86
2023/04/20 13:28:57;;;;;;;16.43;14.07;;;;;;;;;;5019512;28;20554;-86
2023/04/20 13:31:24;;;;;;;17.90;15.33;;;14.20;99.90;;;;;;5020563;28;20490;-86
2023/04/20 13:33:53;;;;;;;19.17;15.70;;;14.30;99.90;;;;;;5027738;28;20467;-86
2023/04/20 13:36:20;;;;;;;15.93;13.90;;;14.40;99.90;;;;;;5023342;28;20789;-86
2023/04/20 13:38:48;;;;;;;18.40;14.80;;;;;;;;;;5020755;28;20504;-86
2023/04/20 13:41:15;;;;;;;15.50;13.70;;;;;;;;;;5022556;28;20808;-86
2023/04/20 13:43:44;;;;;;;21.90;16.83;;;14.60;63.70;;;;;;5029842;28;20897;-86
2023/04/20 13:46:14;;;;;;;19.77;13.80;;;15.20;97.20;;;;;;5029837;28;20472;-86
2023/04/20 13:48:40;;;;;;;16.40;13.13;;;15.10;99.90;;;;;;5029217;28;20439;-85
2023/04/20 13:51:07;;;;;;;17.33;15.20;;;14.90;99.90;;;;;;5027104;28;20467;-86
2023/04/20 13:53:34;;;;;;;14.37;12.87;;;15.10;99.90;;;;;;5030387;28;20491;-85
2023/04/20 13:56:02;;;;;;;14.17;12.67;;;14.80;1.00;;;;;;5020773;28;20484;-86
2023/04/20 13:58:29;;;;;;;15.80;13.00;;;14.90;99.90;;;;;;5020697;28;20957;-86
2023/04/20 14:00:57;;;;;;;21.03;14.67;;;15.60;21.20;;;;;;5022015;28;20817;-86
2023/04/20 14:03:55;;;;;;;16.00;12.70;;;15.30;98.20;;;;;;5032601;28;20468;-84
2023/04/20 14:06:25;;;;;;;12.80;11.47;;;;;;;;;;4974464;28;20467;-88
2023/04/20 14:08:52;;;;;;;14.43;12.47;;;;;;;;;;5025429;28;20440;-90
2023/04/20 14:11:20;;;;;;;16.10;10.90;;;;;;;;;;5037900;28;20456;-90
2023/04/20 14:14:15;;;;;;;13.73;12.33;;;14.70;1.00;;;;;;5037762;28;20494;-90
2023/04/20 14:16:47;;;;;;;14.67;11.90;;;14.90;99.90;;;;;;5038387;28;20455;-85
2023/04/20 14:19:14;;;;;;;15.80;12.03;;;14.80;99.90;;;;;;5039708;28;21009;-87
2023/04/20 14:21:46;;;;;;;14.50;11.97;;;14.70;1.00;;;;;;5039447;28;20416;-89
2023/04/20 14:24:14;;;;;;;16.33;12.07;;;15.20;1.00;;;;;;5040709;28;20482;-88
2023/04/20 14:26:41;;;;;;;12.80;11.47;;;;;;;;;;5033674;28;20448;-89
2023/04/20 14:29:08;;;;;;;13.73;12.33;;;14.80;99.90;;;;;;5028202;28;20522;-89
2023/04/20 14:31:35;;;;;;;19.40;13.97;;;14.90;1.00;;;;;;5029648;28;20479;-88
2023/04/20 14:34:04;;;;;;;21.40;15.13;;;15.00;1.00;;;;;;5025754;28;20590;-89
2023/04/20 14:36:31;;;;;;;14.43;12.00;;;15.00;83.20;;;;;;5030613;28;20440;-88
2023/04/20 14:38:58;;;;;;;16.10;12.90;;;14.90;1.00;;;;;;5036666;28;20519;-89
2023/04/20 14:41:25;;;;;;;17.73;12.83;;;15.10;1.00;;;;;;5037022;28;20515;-88
2023/04/20 14:43:52;;;;;;;26.53;21.13;;;15.20;1.00;;;;;;5029563;28;20855;-88
2023/04/20 14:46:19;;;;;;;21.07;13.83;;;15.30;1.00;;;;;;5032160;28;20436;-88
2023/04/20 14:48:47;;;;;;;15.50;10.90;;;15.40;1.00;;;;;;5030459;28;20460;-88
2023/04/20 14:51:17;;;;;;;12.43;10.20;;;15.80;1.00;;;;;;5030404;28;20452;-87
2023/04/20 14:53:44;;;;;;;11.00;10.10;;;15.80;1.00;;;;;;5031148;28;20487;-88
2023/04/20 14:56:11;;;;;;;13.03;9.80;;;15.90;1.00;;;;;;5031409;28;20447;-89
2023/04/20 14:58:41;;;;;;;12.00;10.03;;;;;;;;;;5030749;28;20439;-88
2023/04/20 15:01:10;;;;;;;11.00;9.90;;;15.50;1.00;;;;;;5032845;28;20444;-88
2023/04/20 15:03:36;;;;;;;10.80;9.83;;;15.30;1.00;;;;;;5032153;28;20998;-88
2023/04/20 15:06:03;;;;;;;10.90;9.70;;;15.40;1.00;;;;;;5033412;28;20826;-89
2023/04/20 15:08:32;;;;;;;14.97;13.50;;;15.60;11.20;;;;;;5034567;28;20519;-89
2023/04/20 15:11:00;;;;;;;17.30;13.30;;;15.40;1.00;;;;;;5031468;28;20455;-90
2023/04/20 15:13:27;;;;;;;11.57;10.30;;;15.30;1.00;;;;;;5028728;28;20490;-88
2023/04/20 15:15:54;;;;;;;11.07;9.00;;;15.20;1.00;;;;;;5032475;28;20451;-87
2023/04/20 15:18:21;;;;;;;10.40;9.47;;;;;;;;;;5027411;28;20502;-87
2023/04/20 15:20:51;;;;;;;11.23;9.83;;;15.40;1.00;;;;;;5027424;28;20448;-88
2023/04/20 15:23:20;;;;;;;12.53;9.03;;;15.40;1.00;;;;;;5040121;28;20460;-88
2023/04/20 15:25:48;;;;;;;12.40;10.50;;;15.40;1.00;;;;;;5039070;28;20443;-88
2023/04/20 15:28:15;;;;;;;10.77;8.30;;;15.30;1.00;;;;;;5032314;28;20448;-89
2023/04/20 15:30:43;;;;;;;9.50;8.50;;;15.30;1.00;;;;;;5031998;28;20448;-88
2023/04/20 15:33:10;;;;;;;9.33;8.53;;;15.40;1.00;;;;;;5036042;28;20487;-88
2023/04/20 15:35:37;;;;;;;8.53;7.67;;;15.20;1.00;;;;;;5034899;28;20433;-87
2023/04/20 15:38:04;;;;;;;9.10;7.93;;;15.20;1.00;;;;;;5036569;28;20638;-88
2023/04/20 15:40:32;;;;;;;9.90;9.03;;;15.20;1.00;;;;;;5034411;28;20452;-88
2023/04/20 15:43:01;;;;;;;15.77;9.27;;;15.30;1.00;;;;;;5035081;28;20495;-84
2023/04/20 15:45:32;;;;;;;9.60;8.10;;;;;;;;;;5032026;28;20456;-88
2023/04/20 15:48:02;;;;;;;11.07;8.77;;;15.10;1.00;;;;;;5031936;28;20436;-87
2023/04/20 15:50:29;;;;;;;10.17;9.10;;;15.30;1.00;;;;;;5031978;28;20452;-88
2023/04/20 15:52:56;;;;;;;9.83;8.73;;;;;;;;;;5033149;28;20519;-87
2023/04/20 15:55:24;;;;;;;9.87;8.97;;;;;;;;;;5028441;28;20867;-87
2023/04/20 15:57:55;;;;;;;9.27;7.90;;;15.50;1.00;;;;;;5029134;28;20455;-88
2023/04/20 16:00:24;;;;;;;9.07;8.30;;;15.30;1.00;;;;;;5027951;28;20432;-88
2023/04/20 16:02:52;;;;;;;10.80;9.00;;;;;;;;;;5027994;28;20935;-88
2023/04/20 16:05:20;;;;;;;8.97;8.00;;;;;;;;;;5027356;28;20547;-88
2023/04/20 16:07:47;;;;;;;12.73;10.93;;;15.20;1.00;;;;;;5027558;28;20479;-88
2023/04/20 16:10:19;;;;;;;18.40;10.13;;;15.20;1.00;;;;;;5039207;28;20455;-88
2023/04/20 16:12:47;;;;;;;10.87;9.77;;;;;;;;;;5037686;28;20515;-83
2023/04/20 16:15:15;;;;;;;10.90;9.40;;;;;;;;;;5033445;28;20512;-84
2023/04/20 16:17:44;;;;;;;10.23;8.03;;;16.40;1.00;;;;;;5026013;28;20472;-84
2023/04/20 16:20:12;;;;;;;9.13;8.23;;;17.30;1.00;;;;;;5031528;28;20511;-82
2023/04/20 16:22:38;;;;;;;12.73;8.67;;;17.50;1.00;;;;;;5032913;28;20499;-83
2023/04/20 16:25:07;;;;;;;11.30;8.40;;;17.00;1.00;;;;;;5025376;28;20455;-85
2023/04/20 16:27:36;;;;;;;9.30;8.43;;;16.70;1.00;;;;;;5024750;28;20490;-84
2023/04/20 16:30:03;;;;;;;13.00;11.80;;;;;;;;;;5028184;28;20511;-86
2023/04/20 16:32:30;;;;;;;11.13;10.07;;;16.50;1.00;;;;;;5032383;28;20548;-80
2023/04/20 16:35:00;;;;;;;12.90;10.40;;;16.60;1.00;;;;;;5032402;28;20450;-81
2023/04/20 16:37:31;;;;;;;11.30;9.33;;;17.20;55.60;;;;;;5032578;28;20433;-84
2023/04/20 16:39:58;;;;;;;7.87;7.17;;;17.20;1.00;;;;;;5033210;28;20448;-82